createdAt,value
2022-10-18T00:00:34.683Z,3.08
2022-10-18T00:03:37.247Z,2.97
2022-10-18T00:06:41.208Z,3.13
2022-10-18T00:09:44.930Z,2.92
2022-10-18T00:15:56.737Z,3.08
2022-10-18T00:18:58.302Z,3.05
2022-10-18T00:21:59.763Z,3.22
2022-10-18T00:25:01.248Z,3.20
2022-10-18T00:28:02.761Z,2.92
2022-10-18T00:31:29.318Z,3.03
2022-10-18T00:34:30.747Z,3.08
2022-10-18T00:37:33.135Z,3.47
2022-10-18T00:40:34.589Z,3.45
2022-10-18T00:43:54.112Z,3.63
2022-10-18T00:46:59.479Z,3.65
2022-10-18T00:50:04.423Z,3.40
2022-10-18T00:53:11.793Z,4.30
2022-10-18T00:56:13.563Z,3.63
2022-10-18T00:59:16.981Z,3.97
2022-10-18T01:02:18.740Z,3.80
2022-10-18T01:05:20.783Z,4.07
2022-10-18T01:12:32.996Z,3.50
2022-10-18T01:15:50.518Z,3.65
2022-10-18T01:19:01.454Z,4.07
2022-10-18T01:22:13.416Z,3.35
2022-10-18T01:25:28.400Z,3.75
2022-10-18T01:29:02.146Z,3.80
2022-10-18T01:32:07.267Z,4.22
2022-10-18T01:35:14.713Z,3.45
2022-10-18T01:38:19.326Z,3.50
2022-10-18T01:41:24.017Z,3.65
2022-10-18T01:44:29.514Z,3.42
2022-10-18T01:47:31.665Z,3.72
2022-10-18T01:50:34.794Z,3.72
2022-10-18T01:53:36.225Z,3.53
2022-10-18T01:56:54.167Z,3.47
2022-10-18T02:00:04.429Z,3.55
2022-10-18T02:03:25.776Z,3.47
2022-10-18T02:06:31.752Z,3.70
2022-10-18T02:09:41.936Z,3.58
2022-10-18T02:12:46.661Z,3.28
2022-10-18T02:15:54.595Z,3.50
2022-10-18T02:19:00.504Z,3.58
2022-10-18T02:22:03.211Z,3.50
2022-10-18T02:25:10.319Z,3.42
2022-10-18T02:28:11.798Z,3.33
2022-10-18T02:31:20.385Z,3.25
2022-10-18T02:34:27.818Z,3.45
2022-10-18T02:37:33.372Z,3.75
2022-10-18T02:40:34.862Z,3.40
2022-10-18T02:43:36.350Z,3.22
2022-10-18T02:46:39.137Z,3.33
2022-10-18T02:49:40.718Z,3.60
2022-10-18T02:52:42.131Z,3.70
2022-10-18T02:55:43.595Z,4.28
2022-10-18T02:58:45.010Z,3.78
2022-10-18T03:01:46.477Z,3.70
2022-10-18T03:04:47.895Z,3.40
2022-10-18T03:07:49.278Z,4.00
2022-10-18T03:10:50.768Z,3.97
2022-10-18T03:13:52.256Z,3.85
2022-10-18T03:16:53.807Z,3.60
2022-10-18T03:19:55.338Z,3.78
2022-10-18T03:22:56.746Z,3.55
2022-10-18T03:25:58.162Z,3.67
2022-10-18T03:29:00.037Z,3.88
2022-10-18T03:32:01.593Z,3.88
2022-10-18T03:35:03.071Z,3.90
2022-10-18T03:38:04.661Z,3.80
2022-10-18T03:41:06.246Z,3.72
2022-10-18T03:44:07.657Z,3.67
2022-10-18T03:47:09.042Z,4.25
2022-10-18T03:50:10.428Z,4.47
2022-10-18T03:53:12.079Z,4.63
2022-10-18T03:56:13.528Z,3.90
2022-10-18T03:59:16.976Z,4.00
2022-10-18T04:02:18.695Z,4.10
2022-10-18T04:05:20.267Z,3.80
2022-10-18T04:08:21.843Z,4.03
2022-10-18T04:11:23.220Z,4.07
2022-10-18T04:14:24.654Z,4.10
2022-10-18T04:17:26.170Z,4.05
2022-10-18T04:20:27.975Z,4.13
2022-10-18T04:23:31.785Z,4.15
2022-10-18T04:26:36.410Z,4.00
2022-10-18T04:29:37.827Z,4.32
2022-10-18T04:32:39.308Z,4.55
2022-10-18T04:35:40.713Z,4.22
2022-10-18T04:38:42.141Z,3.83
2022-10-18T04:41:43.683Z,4.20
2022-10-18T04:44:45.226Z,4.10
2022-10-18T04:47:46.650Z,4.05
2022-10-18T04:50:49.740Z,4.10
2022-10-18T04:53:51.182Z,4.28
2022-10-18T04:56:52.616Z,4.22
2022-10-18T04:59:54.012Z,4.55
2022-10-18T05:02:58.671Z,4.00
2022-10-18T05:06:02.705Z,4.70
2022-10-18T05:09:04.949Z,4.35
2022-10-18T05:12:06.320Z,4.35
2022-10-18T05:15:08.103Z,4.03
2022-10-18T05:18:09.524Z,3.88
2022-10-18T05:21:12.430Z,4.30
2022-10-18T05:24:13.874Z,4.00
2022-10-18T05:27:15.260Z,4.28
2022-10-18T05:30:16.852Z,4.45
2022-10-18T05:33:18.282Z,4.20
2022-10-18T05:36:19.711Z,4.50
2022-10-18T05:39:21.157Z,4.72
2022-10-18T05:42:22.542Z,4.70
2022-10-18T05:45:24.103Z,4.50
2022-10-18T05:48:25.580Z,5.20
2022-10-18T05:51:26.970Z,4.50
2022-10-18T05:54:28.571Z,4.70
2022-10-18T05:57:30.316Z,4.60
2022-10-18T06:00:32.062Z,4.50
2022-10-18T06:03:33.932Z,4.97
2022-10-18T06:06:36.408Z,4.78
2022-10-18T06:09:38.342Z,4.30
2022-10-18T06:12:39.748Z,4.70
2022-10-18T06:15:41.145Z,4.70
2022-10-18T06:18:42.799Z,6.20
2022-10-18T06:21:44.450Z,5.60
2022-10-18T06:24:45.864Z,4.63
2022-10-18T06:27:47.267Z,4.80
2022-10-18T06:30:48.726Z,4.78
2022-10-18T06:33:50.668Z,4.90
2022-10-18T06:36:55.029Z,13.93
2022-10-18T06:39:59.566Z,9.88
2022-10-18T06:43:19.545Z,6.18
2022-10-18T06:46:22.454Z,5.40
2022-10-18T06:49:24.031Z,5.07
2022-10-18T06:52:25.958Z,4.75
2022-10-18T06:55:27.380Z,4.70
2022-10-18T06:58:30.032Z,5.10
2022-10-18T07:01:32.510Z,4.72
2022-10-18T07:04:34.250Z,5.10
2022-10-18T07:07:35.862Z,4.93
2022-10-18T07:10:37.551Z,5.10
2022-10-18T07:13:39.143Z,5.45
2022-10-18T07:16:40.739Z,6.75
2022-10-18T07:19:42.211Z,5.43
2022-10-18T07:22:43.632Z,6.22
2022-10-18T07:25:45.113Z,5.75
2022-10-18T07:28:49.406Z,5.70
2022-10-18T07:31:50.868Z,5.90
2022-10-18T07:34:52.310Z,5.13
2022-10-18T07:37:53.800Z,4.82
2022-10-18T07:40:59.640Z,4.80
2022-10-18T07:44:02.391Z,4.82
2022-10-18T07:47:03.821Z,4.68
2022-10-18T07:50:05.878Z,13.50
2022-10-18T07:56:15.962Z,4.72
2022-10-18T07:59:17.479Z,5.55
2022-10-18T08:02:18.920Z,6.47
2022-10-18T08:05:20.372Z,6.72
2022-10-18T08:08:23.790Z,5.32
2022-10-18T08:11:25.687Z,5.18
2022-10-18T08:14:27.102Z,5.20
2022-10-18T08:17:28.721Z,6.70
2022-10-18T08:20:31.945Z,5.88
2022-10-18T08:23:33.875Z,5.38
2022-10-18T08:26:35.299Z,5.28
2022-10-18T08:29:36.756Z,5.55
2022-10-18T08:32:38.203Z,5.03
2022-10-18T08:35:39.702Z,5.00
2022-10-18T08:38:42.236Z,5.10
2022-10-18T08:41:58.653Z,5.18
2022-10-18T08:45:08.167Z,5.18
2022-10-18T08:48:34.261Z,5.00
2022-10-18T08:51:42.352Z,5.43
2022-10-18T08:54:55.591Z,5.43
2022-10-18T08:57:58.144Z,4.75
2022-10-18T09:01:39.389Z,4.97
2022-10-18T09:04:54.317Z,4.88
2022-10-18T09:08:14.218Z,4.85
2022-10-18T09:11:47.247Z,4.53
2022-10-18T09:15:07.445Z,4.88
2022-10-18T09:18:37.470Z,4.85
2022-10-18T09:21:52.489Z,5.00
2022-10-18T09:25:06.193Z,4.63
2022-10-18T09:28:16.870Z,4.57
2022-10-18T09:31:21.411Z,4.30
2022-10-18T09:34:40.649Z,4.50
2022-10-18T09:37:43.887Z,4.40
2022-10-18T09:40:55.864Z,4.32
2022-10-18T09:47:16.480Z,4.10
2022-10-18T09:50:27.601Z,3.90
2022-10-18T09:53:47.539Z,4.13
2022-10-18T09:59:57.838Z,4.32
2022-10-18T10:03:01.197Z,4.30
2022-10-18T10:06:11.605Z,4.25
2022-10-18T10:09:18.241Z,4.07
2022-10-18T10:12:29.829Z,4.32
2022-10-18T10:15:36.961Z,4.30
2022-10-18T10:18:41.245Z,3.97
2022-10-18T10:24:48.716Z,3.43
2022-10-18T10:27:50.714Z,3.58
2022-10-18T10:30:52.181Z,3.55
2022-10-18T10:33:59.560Z,3.67
2022-10-18T10:37:00.987Z,3.13
2022-10-18T10:40:19.257Z,3.92
2022-10-18T10:43:45.541Z,2.53
2022-10-18T10:46:50.291Z,2.60
2022-10-18T10:49:51.741Z,2.90
2022-10-18T10:52:54.574Z,2.92
2022-10-18T10:55:59.040Z,3.33
2022-10-18T10:59:18.933Z,3.20
2022-10-18T11:02:31.118Z,3.05
2022-10-18T11:05:42.982Z,2.90
2022-10-18T11:12:12.172Z,2.30
2022-10-18T11:15:36.412Z,2.63
2022-10-18T11:18:37.915Z,2.70
2022-10-18T11:21:40.784Z,2.50
2022-10-18T11:24:42.531Z,2.80
2022-10-18T11:31:17.375Z,2.73
2022-10-18T11:34:27.832Z,2.80
2022-10-18T11:37:59.549Z,3.15
2022-10-18T11:41:14.296Z,2.90
2022-10-18T11:44:21.892Z,2.92
2022-10-18T11:47:52.267Z,3.20
2022-10-18T11:51:09.583Z,2.38
2022-10-18T11:54:20.171Z,2.20
2022-10-18T11:57:51.866Z,2.50
2022-10-18T12:01:18.060Z,2.70
2022-10-18T12:04:32.394Z,2.38
2022-10-18T12:07:39.929Z,2.47
2022-10-18T12:11:04.031Z,2.20
2022-10-18T12:14:20.479Z,2.47
2022-10-18T12:17:51.241Z,2.00
2022-10-18T12:20:56.493Z,2.25
2022-10-18T12:24:22.123Z,2.38
2022-10-18T12:27:39.516Z,2.20
2022-10-18T12:31:09.761Z,2.15
2022-10-18T12:34:23.436Z,2.55
2022-10-18T12:37:54.393Z,2.80
2022-10-18T12:40:57.388Z,2.08
2022-10-18T12:44:21.167Z,2.53
2022-10-18T12:47:25.591Z,2.20
2022-10-18T12:50:39.018Z,2.40
2022-10-18T12:53:42.174Z,2.25
2022-10-18T12:56:44.317Z,2.50
2022-10-18T12:59:45.732Z,2.50
2022-10-18T13:03:10.720Z,2.50
2022-10-18T13:06:12.300Z,2.55
2022-10-18T13:09:19.774Z,2.50
2022-10-18T13:12:21.216Z,2.50
2022-10-18T13:15:46.425Z,2.70
2022-10-18T13:18:50.779Z,2.47
2022-10-18T13:22:10.941Z,2.30
2022-10-18T13:25:26.234Z,2.90
2022-10-18T13:28:46.029Z,3.15
2022-10-18T13:32:07.601Z,2.35
2022-10-18T13:35:43.674Z,2.45
2022-10-18T13:38:55.509Z,2.58
2022-10-18T13:41:57.720Z,2.42
2022-10-18T13:45:43.177Z,2.80
2022-10-18T13:48:46.737Z,2.60
2022-10-18T13:52:06.856Z,2.72
2022-10-18T13:55:38.293Z,2.85
2022-10-18T13:59:21.760Z,2.50
2022-10-18T14:02:51.452Z,2.53
2022-10-18T14:06:15.764Z,2.53
2022-10-18T14:09:43.651Z,2.58
2022-10-18T14:12:54.570Z,2.70
2022-10-18T14:16:05.794Z,2.60
2022-10-18T14:19:25.287Z,2.30
2022-10-18T14:22:35.542Z,2.75
2022-10-18T14:25:38.190Z,2.70
2022-10-18T14:28:58.660Z,2.95
2022-10-18T14:32:01.035Z,2.53
2022-10-18T14:35:31.037Z,2.40
2022-10-18T14:38:24.528Z,2.58
2022-10-18T14:44:38.877Z,2.80
2022-10-18T14:47:40.307Z,2.67
2022-10-18T14:50:47.385Z,2.70
2022-10-18T14:53:49.215Z,3.25
2022-10-18T14:59:56.903Z,3.40
2022-10-18T15:02:58.603Z,4.03
2022-10-18T15:09:06.784Z,3.85
2022-10-18T15:12:11.723Z,3.90
2022-10-18T15:15:28.644Z,3.67
2022-10-18T15:21:36.042Z,3.67
2022-10-18T15:24:40.176Z,3.92
2022-10-18T15:27:45.249Z,3.95
2022-10-18T15:30:47.036Z,3.75
2022-10-18T15:33:48.890Z,4.05
2022-10-18T15:36:52.852Z,3.70
2022-10-18T15:40:16.648Z,3.97
2022-10-18T15:43:24.107Z,3.80
2022-10-18T15:46:31.938Z,4.43
2022-10-18T15:49:51.065Z,4.10
2022-10-18T15:52:52.477Z,3.92
2022-10-18T15:55:58.608Z,3.92
2022-10-18T15:59:03.978Z,4.00
2022-10-18T16:02:13.144Z,4.70
2022-10-18T16:05:18.471Z,4.45
2022-10-18T16:08:23.364Z,4.55
2022-10-18T16:11:29.918Z,4.53
2022-10-18T16:14:35.319Z,4.40
2022-10-18T16:17:37.609Z,4.30
2022-10-18T16:20:43.338Z,4.20
2022-10-18T16:24:02.930Z,4.07
2022-10-18T16:27:13.421Z,4.30
2022-10-18T16:30:21.591Z,4.20
2022-10-18T16:33:30.082Z,3.65
2022-10-18T16:36:52.626Z,4.05
2022-10-18T16:39:54.056Z,4.20
2022-10-18T16:42:55.433Z,4.22
2022-10-18T16:45:57.031Z,4.20
2022-10-18T16:48:59.342Z,4.75
2022-10-18T16:52:00.780Z,4.45
2022-10-18T16:55:02.265Z,4.25
2022-10-18T16:58:04.067Z,4.63
2022-10-18T17:01:08.119Z,4.50
2022-10-18T17:04:10.505Z,4.53
2022-10-18T17:07:25.202Z,4.35
2022-10-18T17:10:27.603Z,4.65
2022-10-18T17:13:29.030Z,4.50
2022-10-18T17:16:35.315Z,4.28
2022-10-18T17:19:36.781Z,4.60
2022-10-18T17:22:38.274Z,4.03
2022-10-18T17:25:52.733Z,3.90
2022-10-18T17:29:08.124Z,4.25
2022-10-18T17:32:09.837Z,4.38
2022-10-18T17:35:11.954Z,4.30
2022-10-18T17:38:13.339Z,4.28
2022-10-18T17:41:14.777Z,4.90
2022-10-18T17:44:16.335Z,4.15
2022-10-18T17:47:17.715Z,4.47
2022-10-18T17:50:19.132Z,4.43
2022-10-18T17:53:23.196Z,4.07
2022-10-18T17:56:27.077Z,4.30
2022-10-18T17:59:28.855Z,4.57
2022-10-18T18:02:30.481Z,4.20
2022-10-18T18:05:33.820Z,4.47
2022-10-18T18:08:35.209Z,3.67
2022-10-18T18:11:38.677Z,4.65
2022-10-18T18:14:40.223Z,4.13
2022-10-18T18:17:57.926Z,4.30
2022-10-18T18:20:59.912Z,4.30
2022-10-18T18:24:01.719Z,4.43
2022-10-18T18:27:03.354Z,4.40
2022-10-18T18:30:06.912Z,4.22
2022-10-18T18:33:11.622Z,4.30
2022-10-18T18:36:13.354Z,3.78
2022-10-18T18:39:24.822Z,4.50
2022-10-18T18:42:26.483Z,4.30
2022-10-18T18:45:29.375Z,4.10
2022-10-18T18:48:32.614Z,3.90
2022-10-18T18:51:37.475Z,4.00
2022-10-18T18:54:39.120Z,4.13
2022-10-18T18:57:40.870Z,3.78
2022-10-18T19:00:44.544Z,4.30
2022-10-18T19:03:48.578Z,4.00
2022-10-18T19:06:50.104Z,4.28
2022-10-18T19:09:52.131Z,4.05
2022-10-18T19:16:20.422Z,4.22
2022-10-18T19:19:24.146Z,4.18
2022-10-18T19:22:25.698Z,4.55
2022-10-18T19:25:27.453Z,4.88
2022-10-18T19:28:29.312Z,6.18
2022-10-18T19:31:30.975Z,5.75
2022-10-18T19:34:34.533Z,5.20
2022-10-18T19:37:36.185Z,4.95
2022-10-18T19:40:37.967Z,4.82
2022-10-18T19:43:39.631Z,4.90
2022-10-18T19:46:41.373Z,4.70
2022-10-18T19:49:43.109Z,5.10
2022-10-18T19:52:44.636Z,5.20
2022-10-18T19:55:46.076Z,4.93
2022-10-18T19:58:48.236Z,5.00
2022-10-18T20:01:49.962Z,5.47
2022-10-18T20:04:51.521Z,5.70
2022-10-18T20:07:52.929Z,5.55
2022-10-18T20:10:54.923Z,5.50
2022-10-18T20:16:58.328Z,5.63
2022-10-18T20:19:59.899Z,5.60
2022-10-18T20:23:01.318Z,5.40
2022-10-18T20:26:04.428Z,5.72
2022-10-18T20:29:07.422Z,5.65
2022-10-18T20:32:09.213Z,5.65
2022-10-18T20:35:10.779Z,5.38
2022-10-18T20:38:12.215Z,5.82
2022-10-18T20:41:22.982Z,5.63
2022-10-18T20:44:26.585Z,5.40
2022-10-18T20:47:27.972Z,5.30
2022-10-18T20:50:29.399Z,5.47
2022-10-18T20:53:30.915Z,5.43
2022-10-18T20:56:34.193Z,5.20
2022-10-18T20:59:36.654Z,5.50
2022-10-18T21:02:38.567Z,5.30
2022-10-18T21:05:39.983Z,5.20
2022-10-18T21:08:42.387Z,5.32
2022-10-18T21:11:46.226Z,5.07
2022-10-18T21:14:47.758Z,5.03
2022-10-18T21:17:51.081Z,5.38
2022-10-18T21:20:53.414Z,5.30
2022-10-18T21:23:54.817Z,5.20
2022-10-18T21:26:56.749Z,5.00
2022-10-18T21:29:58.222Z,4.78
2022-10-18T21:32:59.614Z,4.20
2022-10-18T21:36:01.751Z,5.45
2022-10-18T21:39:08.714Z,4.88
2022-10-18T21:42:10.291Z,4.90
2022-10-18T21:45:11.658Z,4.65
2022-10-18T21:48:13.085Z,4.03
2022-10-18T21:51:20.152Z,4.43
2022-10-18T21:54:21.587Z,4.63
2022-10-18T21:57:23.123Z,4.70
2022-10-18T22:00:24.781Z,4.25
2022-10-18T22:03:26.425Z,4.30
2022-10-18T22:06:32.008Z,4.72
2022-10-18T22:09:33.750Z,4.07
2022-10-18T22:12:35.349Z,4.50
2022-10-18T22:18:44.754Z,4.72
2022-10-18T22:21:46.656Z,4.35
2022-10-18T22:24:48.109Z,4.30
2022-10-18T22:27:49.727Z,3.97
2022-10-18T22:30:51.213Z,3.63
2022-10-18T22:33:58.875Z,4.03
2022-10-18T22:37:00.564Z,4.10
2022-10-18T22:40:02.135Z,4.32
2022-10-18T22:43:03.821Z,3.75
2022-10-18T22:46:07.935Z,3.95
2022-10-18T22:49:10.481Z,3.95
2022-10-18T22:52:12.168Z,4.40
2022-10-18T22:55:13.864Z,4.03
2022-10-18T22:58:15.649Z,4.43
2022-10-18T23:01:20.397Z,3.88
2022-10-18T23:04:21.919Z,3.95
2022-10-18T23:07:23.407Z,3.95
2022-10-18T23:10:24.875Z,4.82
2022-10-18T23:13:28.221Z,4.72
2022-10-18T23:16:29.946Z,5.53
2022-10-18T23:19:31.394Z,5.97
2022-10-18T23:22:33.133Z,5.93
2022-10-18T23:25:36.612Z,5.88
2022-10-18T23:28:40.196Z,6.50
2022-10-18T23:31:41.767Z,6.47
2022-10-18T23:34:43.181Z,6.70
2022-10-18T23:37:44.578Z,6.63
2022-10-18T23:40:46.001Z,6.13
2022-10-18T23:43:47.838Z,6.18
2022-10-18T23:46:49.272Z,6.40
2022-10-18T23:49:50.747Z,6.20
2022-10-18T23:52:52.161Z,5.68
2022-10-18T23:55:57.904Z,5.85
2022-10-18T23:58:59.417Z,6.70
